createdAt,value
2022-11-28T00:01:33.958Z,2.48
2022-11-28T00:04:01.137Z,2.48
2022-11-28T00:06:28.614Z,2.47
2022-11-28T00:08:58.713Z,2.50
2022-11-28T00:11:25.696Z,2.52
2022-11-28T00:13:53.854Z,2.53
2022-11-28T00:16:22.693Z,2.51
2022-11-28T00:18:51.418Z,2.47
2022-11-28T00:21:18.867Z,2.42
2022-11-28T00:23:47.004Z,2.38
2022-11-28T00:26:17.712Z,2.35
2022-11-28T00:28:44.875Z,2.35
2022-11-28T00:31:21.174Z,2.36
2022-11-28T00:33:48.362Z,2.36
2022-11-28T00:36:15.277Z,2.39
2022-11-28T00:38:42.124Z,2.43
2022-11-28T00:41:13.480Z,2.46
2022-11-28T00:43:41.922Z,2.49
2022-11-28T00:46:10.170Z,2.50
2022-11-28T00:48:37.016Z,2.49
2022-11-28T00:51:08.535Z,2.45
2022-11-28T00:53:36.694Z,2.40
2022-11-28T00:56:05.221Z,2.38
2022-11-28T00:58:33.299Z,2.40
2022-11-28T01:01:00.765Z,2.38
2022-11-28T01:03:27.596Z,2.37
2022-11-28T01:05:54.310Z,2.37
2022-11-28T01:08:21.013Z,2.30
2022-11-28T01:10:47.719Z,2.25
2022-11-28T01:13:14.485Z,2.28
2022-11-28T01:15:42.072Z,2.27
2022-11-28T01:18:09.411Z,2.21
2022-11-28T01:20:36.227Z,2.21
2022-11-28T01:23:03.020Z,2.26
2022-11-28T01:25:29.981Z,2.33
2022-11-28T01:27:56.885Z,2.43
2022-11-28T01:30:24.944Z,2.51
2022-11-28T01:32:51.724Z,2.55
2022-11-28T01:35:18.787Z,2.56
2022-11-28T01:37:45.680Z,2.56
2022-11-28T01:40:13.368Z,2.59
2022-11-28T01:42:40.177Z,2.59
2022-11-28T01:45:19.016Z,2.59
2022-11-28T01:47:47.523Z,2.61
2022-11-28T01:50:15.161Z,2.64
2022-11-28T01:52:45.034Z,2.68
2022-11-28T01:55:16.817Z,2.72
2022-11-28T01:57:43.908Z,2.75
2022-11-28T02:00:16.313Z,2.79
2022-11-28T02:03:00.221Z,2.82
2022-11-28T02:05:26.927Z,2.78
2022-11-28T02:07:53.758Z,2.75
2022-11-28T02:10:28.213Z,2.74
2022-11-28T02:13:13.615Z,2.72
2022-11-28T02:15:46.228Z,2.68
2022-11-28T02:18:19.118Z,2.64
2022-11-28T02:21:13.129Z,2.62
2022-11-28T02:24:01.393Z,2.55
2022-11-28T02:26:30.847Z,2.55
2022-11-28T02:29:15.838Z,2.55
2022-11-28T02:32:20.177Z,2.55
2022-11-28T02:35:05.512Z,2.52
2022-11-28T02:37:58.288Z,2.47
2022-11-28T02:40:36.386Z,2.46
2022-11-28T02:43:07.535Z,2.46
2022-11-28T02:46:00.825Z,2.43
2022-11-28T02:48:30.342Z,2.41
2022-11-28T02:51:16.155Z,2.37
2022-11-28T02:53:45.549Z,2.30
2022-11-28T02:56:12.889Z,2.27
2022-11-28T02:58:39.613Z,2.23
2022-11-28T03:01:17.374Z,2.22
2022-11-28T03:03:50.274Z,2.25
2022-11-28T03:06:35.648Z,2.31
2022-11-28T03:09:14.773Z,2.34
2022-11-28T03:12:15.493Z,2.33
2022-11-28T03:14:51.040Z,2.34
2022-11-28T03:17:20.700Z,2.30
2022-11-28T03:20:12.504Z,2.26
2022-11-28T03:23:06.097Z,2.19
2022-11-28T03:25:35.909Z,2.13
2022-11-28T03:28:13.837Z,2.11
2022-11-28T03:30:50.282Z,2.11
2022-11-28T03:33:20.592Z,2.14
2022-11-28T03:35:57.691Z,2.22
2022-11-28T03:38:38.031Z,2.28
2022-11-28T03:41:14.087Z,2.29
2022-11-28T03:43:46.762Z,2.29
2022-11-28T03:46:17.873Z,2.26
2022-11-28T03:48:50.146Z,2.23
2022-11-28T03:51:36.670Z,2.23
2022-11-28T03:54:11.185Z,2.23
2022-11-28T03:56:50.159Z,2.24
2022-11-28T03:59:23.621Z,2.27
2022-11-28T04:02:07.138Z,2.28
2022-11-28T04:04:54.361Z,2.30
2022-11-28T04:07:25.500Z,2.27
2022-11-28T04:09:54.916Z,2.22
2022-11-28T04:12:39.925Z,2.17
2022-11-28T04:15:26.229Z,2.13
2022-11-28T04:18:10.628Z,2.13
2022-11-28T04:20:53.200Z,2.14
2022-11-28T04:23:21.455Z,2.17
2022-11-28T04:25:58.479Z,2.21
2022-11-28T04:28:29.437Z,2.25
2022-11-28T04:30:58.589Z,2.30
2022-11-28T04:33:29.763Z,2.32
2022-11-28T04:35:57.918Z,2.31
2022-11-28T04:38:27.921Z,2.26
2022-11-28T04:41:04.310Z,2.22
2022-11-28T04:43:34.928Z,2.16
2022-11-28T04:46:17.424Z,2.12
2022-11-28T04:48:44.753Z,2.14
2022-11-28T04:51:18.327Z,2.15
2022-11-28T04:53:52.070Z,2.16
2022-11-28T04:56:33.834Z,2.18
2022-11-28T04:59:01.516Z,2.20
2022-11-28T05:01:31.787Z,2.19
2022-11-28T05:03:59.264Z,2.18
2022-11-28T05:06:36.498Z,2.16
2022-11-28T05:09:04.348Z,2.14
2022-11-28T05:11:31.782Z,2.15
2022-11-28T05:13:58.450Z,2.17
2022-11-28T05:16:25.452Z,2.18
2022-11-28T05:18:52.287Z,2.16
2022-11-28T05:21:19.257Z,2.13
2022-11-28T05:23:46.265Z,2.11
2022-11-28T05:26:19.559Z,2.10
2022-11-28T05:28:49.172Z,2.08
2022-11-28T05:31:18.162Z,2.07
2022-11-28T05:33:44.943Z,2.03
2022-11-28T05:36:13.866Z,2.03
2022-11-28T05:38:42.990Z,2.07
2022-11-28T05:41:25.366Z,2.09
2022-11-28T05:43:57.590Z,2.10
2022-11-28T05:46:27.260Z,2.08
2022-11-28T05:48:54.616Z,2.09
2022-11-28T05:51:21.891Z,2.12
2022-11-28T05:53:48.922Z,2.12
2022-11-28T05:56:20.395Z,2.12
2022-11-28T05:58:47.869Z,2.10
2022-11-28T06:01:22.704Z,2.09
2022-11-28T06:03:57.539Z,2.10
2022-11-28T06:06:26.854Z,2.08
2022-11-28T06:08:55.213Z,2.10
2022-11-28T06:11:24.588Z,2.13
2022-11-28T06:13:52.687Z,2.19
2022-11-28T06:16:27.768Z,2.23
2022-11-28T06:19:06.297Z,2.19
2022-11-28T06:21:38.784Z,2.16
2022-11-28T06:24:10.441Z,2.15
2022-11-28T06:26:38.820Z,2.16
2022-11-28T06:29:08.345Z,2.19
2022-11-28T06:31:36.280Z,2.29
2022-11-28T06:34:04.902Z,2.36
2022-11-28T06:36:35.830Z,2.39
2022-11-28T06:39:05.499Z,2.43
2022-11-28T06:41:35.636Z,2.45
2022-11-28T06:44:05.143Z,2.48
2022-11-28T06:46:34.263Z,2.51
2022-11-28T06:49:02.780Z,2.52
2022-11-28T06:51:30.110Z,2.57
2022-11-28T06:53:58.206Z,2.64
2022-11-28T06:56:26.649Z,2.73
2022-11-28T06:58:57.832Z,2.82
2022-11-28T07:01:28.235Z,2.91
2022-11-28T07:03:56.809Z,2.99
2022-11-28T07:06:26.127Z,3.07
2022-11-28T07:08:58.577Z,3.14
2022-11-28T07:11:31.322Z,3.20
2022-11-28T07:14:01.573Z,3.24
2022-11-28T07:16:33.124Z,3.26
2022-11-28T07:19:00.329Z,3.27
2022-11-28T07:21:29.658Z,3.29
2022-11-28T07:23:59.149Z,3.32
2022-11-28T07:26:26.899Z,3.39
2022-11-28T07:28:55.633Z,3.45
2022-11-28T07:31:31.431Z,3.42
2022-11-28T07:34:00.629Z,3.48
2022-11-28T07:36:28.797Z,3.56
2022-11-28T07:39:02.392Z,3.59
2022-11-28T07:41:29.992Z,3.61
2022-11-28T07:43:59.752Z,3.63
2022-11-28T07:46:29.035Z,3.65
2022-11-28T07:48:59.690Z,3.65
2022-11-28T07:51:31.038Z,3.70
2022-11-28T07:53:58.585Z,3.76
2022-11-28T07:56:39.339Z,3.81
2022-11-28T07:59:11.842Z,3.85
2022-11-28T08:01:39.013Z,3.92
2022-11-28T08:04:08.430Z,4.00
2022-11-28T08:06:41.505Z,4.07
2022-11-28T08:09:11.722Z,4.13
2022-11-28T08:11:40.807Z,4.19
2022-11-28T08:14:09.018Z,4.25
2022-11-28T08:16:39.359Z,4.38
2022-11-28T08:19:07.566Z,4.56
2022-11-28T08:21:35.146Z,4.72
2022-11-28T08:24:04.122Z,4.83
2022-11-28T08:26:32.483Z,5.04
2022-11-28T08:29:04.729Z,5.30
2022-11-28T08:31:41.059Z,5.38
2022-11-28T08:34:10.417Z,5.46
2022-11-28T08:36:39.744Z,5.63
2022-11-28T08:39:26.209Z,5.62
2022-11-28T08:41:57.879Z,5.77
2022-11-28T08:44:47.416Z,5.87
2022-11-28T08:47:15.404Z,6.00
2022-11-28T08:49:42.692Z,6.08
2022-11-28T08:52:10.549Z,6.14
2022-11-28T08:54:38.080Z,6.27
2022-11-28T08:57:05.690Z,6.38
2022-11-28T08:59:33.175Z,6.48
2022-11-28T09:02:02.250Z,6.61
2022-11-28T09:04:29.283Z,6.59
2022-11-28T09:06:58.741Z,6.68
2022-11-28T09:09:32.581Z,6.80
2022-11-28T09:12:00.870Z,6.97
2022-11-28T09:14:29.312Z,7.13
2022-11-28T09:17:00.211Z,7.35
2022-11-28T09:19:29.476Z,7.56
2022-11-28T09:22:01.105Z,7.74
2022-11-28T09:24:32.024Z,7.88
2022-11-28T09:27:03.782Z,7.88
2022-11-28T09:29:32.739Z,8.15
2022-11-28T09:32:03.064Z,8.56
2022-11-28T09:34:35.584Z,9.11
2022-11-28T09:37:06.576Z,9.81
2022-11-28T09:39:50.274Z,9.93
2022-11-28T09:42:43.931Z,9.77
2022-11-28T09:45:15.317Z,10.55
2022-11-28T09:48:01.452Z,11.12
2022-11-28T09:50:36.499Z,12.22
2022-11-28T09:53:12.714Z,13.86
2022-11-28T09:55:54.257Z,15.47
2022-11-28T09:58:27.255Z,16.34
2022-11-28T10:01:27.569Z,16.42
2022-11-28T10:04:20.144Z,16.52
2022-11-28T10:07:18.396Z,16.87
2022-11-28T10:10:21.616Z,17.20
2022-11-28T10:13:02.667Z,16.50
2022-11-28T10:15:58.358Z,15.61
2022-11-28T10:18:38.894Z,14.84
2022-11-28T10:21:38.610Z,14.44
2022-11-28T10:25:02.267Z,13.69
2022-11-28T10:27:45.017Z,13.12
2022-11-28T10:31:07.225Z,12.82
2022-11-28T10:34:26.451Z,12.36
2022-11-28T10:37:06.534Z,11.85
2022-11-28T10:39:41.013Z,11.33
2022-11-28T10:42:24.417Z,10.84
2022-11-28T10:45:20.123Z,10.35
2022-11-28T10:47:56.333Z,9.83
2022-11-28T10:50:45.742Z,9.29
2022-11-28T10:53:27.259Z,8.85
2022-11-28T10:56:28.394Z,8.60
2022-11-28T10:59:23.832Z,8.39
2022-11-28T11:01:52.728Z,8.25
2022-11-28T11:04:24.000Z,8.07
2022-11-28T11:07:29.311Z,7.97
2022-11-28T11:10:21.409Z,7.85
2022-11-28T11:12:52.131Z,7.74
2022-11-28T11:15:22.997Z,7.66
2022-11-28T11:17:51.607Z,7.54
2022-11-28T11:20:27.781Z,7.46
2022-11-28T11:23:38.037Z,7.39
2022-11-28T11:26:11.439Z,7.21
2022-11-28T11:28:44.926Z,7.16
2022-11-28T11:31:34.729Z,7.13
2022-11-28T11:34:15.377Z,7.04
2022-11-28T11:36:42.656Z,7.03
2022-11-28T11:39:11.074Z,6.89
2022-11-28T11:42:18.857Z,6.86
2022-11-28T11:44:46.151Z,6.73
2022-11-28T11:47:13.109Z,6.74
2022-11-28T11:49:43.524Z,6.73
2022-11-28T11:52:17.446Z,6.72
2022-11-28T11:54:56.928Z,6.68
2022-11-28T11:57:33.493Z,6.59
2022-11-28T12:00:10.407Z,6.55
2022-11-28T12:03:06.515Z,6.46
2022-11-28T12:08:51.049Z,6.46
2022-11-28T12:11:30.008Z,6.39
2022-11-28T12:14:21.353Z,6.40
2022-11-28T12:16:58.052Z,6.33
2022-11-28T12:19:32.177Z,6.31
2022-11-28T12:22:14.134Z,6.24
2022-11-28T12:25:02.437Z,6.17
2022-11-28T12:28:14.696Z,6.03
2022-11-28T12:30:50.969Z,6.02
2022-11-28T12:33:51.872Z,6.01
2022-11-28T12:36:31.356Z,5.94
2022-11-28T12:39:00.236Z,5.93
2022-11-28T12:42:06.855Z,5.94
2022-11-28T12:44:33.812Z,5.86
2022-11-28T12:47:18.788Z,5.87
2022-11-28T12:49:57.598Z,5.89
2022-11-28T12:52:51.429Z,5.79
2022-11-28T12:56:03.671Z,5.70
2022-11-28T12:58:54.098Z,5.69
2022-11-28T13:01:35.515Z,5.62
2022-11-28T13:04:47.492Z,5.56
2022-11-28T13:07:39.520Z,5.48
2022-11-28T13:10:14.894Z,5.43
2022-11-28T13:13:03.510Z,5.43
2022-11-28T13:15:36.556Z,5.40
2022-11-28T13:18:29.281Z,5.45
2022-11-28T13:21:24.524Z,5.44
2022-11-28T13:24:07.572Z,5.42
2022-11-28T13:26:58.405Z,5.44
2022-11-28T13:29:52.850Z,5.39
2022-11-28T13:32:29.950Z,5.30
2022-11-28T13:34:58.234Z,5.25
2022-11-28T13:40:35.128Z,5.20
2022-11-28T13:43:07.937Z,5.20
2022-11-28T13:45:40.784Z,5.21
2022-11-28T13:51:35.136Z,5.19
2022-11-28T13:54:25.156Z,5.20
2022-11-28T13:57:10.111Z,5.19
2022-11-28T13:59:37.873Z,5.22
2022-11-28T14:02:21.625Z,5.16
2022-11-28T14:04:49.121Z,5.14
2022-11-28T14:07:31.463Z,5.07
2022-11-28T14:10:29.748Z,5.03
2022-11-28T14:13:22.639Z,4.99
2022-11-28T14:16:01.092Z,4.99
2022-11-28T14:19:02.042Z,5.00
2022-11-28T14:21:40.917Z,5.02
2022-11-28T14:24:10.675Z,5.03
2022-11-28T14:26:40.075Z,5.03
2022-11-28T14:29:21.114Z,5.00
2022-11-28T14:32:21.934Z,4.96
2022-11-28T14:34:48.073Z,4.89
2022-11-28T14:37:21.130Z,4.83
2022-11-28T14:39:52.293Z,4.76
2022-11-28T14:45:40.162Z,4.66
2022-11-28T14:48:17.708Z,4.62
2022-11-28T14:50:54.591Z,4.61
2022-11-28T14:53:41.758Z,4.65
2022-11-28T14:56:29.463Z,4.69
2022-11-28T14:59:01.279Z,4.73
2022-11-28T15:01:46.525Z,4.75
2022-11-28T15:04:34.845Z,4.77
2022-11-28T15:07:03.664Z,4.76
2022-11-28T15:10:07.247Z,4.75
2022-11-28T15:12:59.531Z,4.72
2022-11-28T15:15:28.625Z,4.67
2022-11-28T15:17:59.433Z,4.61
2022-11-28T15:20:32.758Z,4.56
2022-11-28T15:23:00.369Z,4.53
2022-11-28T15:25:36.734Z,4.53
2022-11-28T15:28:18.560Z,4.54
2022-11-28T15:30:49.593Z,4.56
2022-11-28T15:33:17.118Z,4.58
2022-11-28T15:35:57.758Z,4.63
2022-11-28T15:38:27.481Z,4.58
2022-11-28T15:40:56.554Z,4.54
2022-11-28T15:43:25.355Z,4.51
2022-11-28T15:46:02.061Z,4.49
2022-11-28T15:48:51.788Z,4.47
2022-11-28T15:51:34.993Z,4.44
2022-11-28T15:54:32.164Z,4.46
2022-11-28T15:57:00.748Z,4.49
2022-11-28T15:59:29.341Z,4.52
2022-11-28T16:02:10.933Z,4.57
2022-11-28T16:04:38.401Z,4.56
2022-11-28T16:07:06.333Z,4.56
2022-11-28T16:09:35.096Z,4.56
2022-11-28T16:12:04.690Z,4.55
2022-11-28T16:14:35.148Z,4.54
2022-11-28T16:17:09.817Z,4.50
2022-11-28T16:19:37.402Z,4.44
2022-11-28T16:22:08.929Z,4.42
2022-11-28T16:24:48.454Z,4.40
2022-11-28T16:27:34.921Z,4.40
2022-11-28T16:30:23.248Z,4.41
2022-11-28T16:32:52.180Z,4.43
2022-11-28T16:35:28.407Z,4.43
2022-11-28T16:38:18.537Z,4.41
2022-11-28T16:40:45.246Z,4.38
2022-11-28T16:43:32.817Z,4.35
2022-11-28T16:46:05.983Z,4.30
2022-11-28T16:48:45.856Z,4.26
2022-11-28T16:51:21.570Z,4.21
2022-11-28T16:53:55.030Z,4.18
2022-11-28T16:56:29.582Z,4.16
2022-11-28T16:59:14.325Z,4.16
2022-11-28T17:01:45.271Z,4.19
2022-11-28T17:04:26.858Z,4.21
2022-11-28T17:06:57.588Z,4.21
2022-11-28T17:09:24.494Z,4.19
2022-11-28T17:11:54.471Z,4.14
2022-11-28T17:14:22.250Z,4.11
2022-11-28T17:16:49.419Z,4.11
2022-11-28T17:19:17.061Z,4.04
2022-11-28T17:21:57.173Z,3.96
2022-11-28T17:24:35.378Z,3.91
2022-11-28T17:27:03.543Z,3.89
2022-11-28T17:29:30.320Z,3.87
2022-11-28T17:31:58.320Z,3.87
2022-11-28T17:34:27.284Z,3.90
2022-11-28T17:36:54.453Z,3.93
2022-11-28T17:39:21.391Z,3.92
2022-11-28T17:41:49.120Z,3.90
2022-11-28T17:44:22.233Z,3.88
2022-11-28T17:46:50.636Z,3.82
2022-11-28T17:49:18.694Z,3.77
2022-11-28T17:51:45.826Z,3.71
2022-11-28T17:54:16.105Z,3.65
2022-11-28T17:56:45.761Z,3.58
2022-11-28T17:59:14.576Z,3.52
2022-11-28T18:01:46.954Z,3.53
2022-11-28T18:04:13.761Z,3.51
2022-11-28T18:06:45.699Z,3.46
2022-11-28T18:09:14.443Z,3.40
2022-11-28T18:11:42.440Z,3.34
2022-11-28T18:14:09.895Z,3.28
2022-11-28T18:16:39.090Z,3.19
2022-11-28T18:19:07.350Z,3.07
2022-11-28T18:21:34.211Z,3.00
2022-11-28T18:24:02.103Z,2.99
2022-11-28T18:26:29.781Z,2.99
2022-11-28T18:28:58.371Z,3.00
2022-11-28T18:31:28.317Z,3.01
2022-11-28T18:34:02.073Z,2.99
2022-11-28T18:36:36.273Z,2.93
2022-11-28T18:39:10.695Z,2.88
2022-11-28T18:41:39.687Z,2.83
2022-11-28T18:44:10.118Z,2.78
2022-11-28T18:46:38.576Z,2.74
2022-11-28T18:49:05.497Z,2.69
2022-11-28T18:51:34.100Z,2.63
2022-11-28T18:54:05.116Z,2.59
2022-11-28T18:56:33.082Z,2.56
2022-11-28T18:58:59.842Z,2.55
2022-11-28T19:01:33.007Z,2.53
2022-11-28T19:04:06.751Z,2.44
2022-11-28T19:06:35.584Z,2.38
2022-11-28T19:09:07.447Z,2.33
2022-11-28T19:11:34.995Z,2.24
2022-11-28T19:14:02.900Z,2.13
2022-11-28T19:16:32.859Z,2.05
2022-11-28T19:19:01.849Z,1.96
2022-11-28T19:21:32.190Z,1.90
2022-11-28T19:24:03.742Z,1.84
2022-11-28T19:26:36.473Z,1.79
2022-11-28T19:29:05.310Z,1.75
2022-11-28T19:31:34.599Z,1.71
2022-11-28T19:34:06.394Z,1.68
2022-11-28T19:37:05.260Z,1.66
2022-11-28T19:39:32.224Z,1.63
2022-11-28T19:41:59.867Z,1.57
2022-11-28T19:44:28.490Z,1.48
2022-11-28T19:46:55.831Z,1.41
2022-11-28T19:49:24.531Z,1.34
2022-11-28T19:51:53.461Z,1.24
2022-11-28T19:54:20.987Z,1.19
2022-11-28T19:56:49.076Z,1.13
2022-11-28T19:59:16.433Z,1.05
2022-11-28T20:01:43.820Z,0.99
2022-11-28T20:04:12.133Z,0.93
2022-11-28T20:06:38.916Z,0.86
2022-11-28T20:09:08.574Z,0.84
2022-11-28T20:11:38.130Z,0.83
2022-11-28T20:14:09.571Z,0.76
2022-11-28T20:16:37.284Z,0.62
2022-11-28T20:19:05.679Z,0.53
2022-11-28T20:21:34.152Z,0.47
2022-11-28T20:24:04.705Z,0.44
2022-11-28T20:26:37.329Z,0.40
2022-11-28T20:29:04.764Z,0.38
2022-11-28T20:31:36.655Z,0.38
2022-11-28T20:34:05.500Z,0.37
2022-11-28T20:36:33.781Z,0.36
2022-11-28T20:39:04.848Z,0.36
2022-11-28T20:41:32.422Z,0.33
2022-11-28T20:44:00.313Z,0.25
2022-11-28T20:46:30.401Z,0.19
2022-11-28T20:48:59.643Z,0.15
2022-11-28T20:51:28.511Z,0.14
2022-11-28T20:53:57.347Z,0.17
2022-11-28T20:56:28.661Z,0.15
2022-11-28T20:58:58.128Z,0.13
2022-11-28T21:01:27.409Z,0.13
2022-11-28T21:03:54.363Z,0.12
2022-11-28T21:06:21.338Z,0.09
2022-11-28T21:08:48.356Z,0.03
2022-11-28T21:11:43.468Z,-0.02
2022-11-28T21:14:05.711Z,-0.10
2022-11-28T21:16:33.446Z,-0.16
2022-11-28T21:19:08.873Z,-0.18
2022-11-28T21:21:39.028Z,-0.17
2022-11-28T21:24:09.877Z,-0.16
2022-11-28T21:26:42.376Z,-0.18
2022-11-28T21:29:13.115Z,-0.23
2022-11-28T21:31:42.537Z,-0.28
2022-11-28T21:34:13.654Z,-0.32
2022-11-28T21:36:40.406Z,-0.37
2022-11-28T21:39:07.182Z,-0.41
2022-11-28T21:41:34.302Z,-0.41
2022-11-28T21:44:01.507Z,-0.40
2022-11-28T21:46:28.511Z,-0.38
2022-11-28T21:48:57.151Z,-0.32
2022-11-28T21:51:28.260Z,-0.31
2022-11-28T21:53:58.591Z,-0.31
2022-11-28T21:56:26.208Z,-0.32
2022-11-28T21:58:53.977Z,-0.37
2022-11-28T22:01:21.739Z,-0.41
2022-11-28T22:03:48.986Z,-0.46
2022-11-28T22:06:20.423Z,-0.51
2022-11-28T22:08:49.286Z,-0.55
2022-11-28T22:11:16.837Z,-0.62
2022-11-28T22:13:46.887Z,-0.71
2022-11-28T22:16:13.893Z,-0.77
2022-11-28T22:18:40.762Z,-0.86
2022-11-28T22:21:22.575Z,-0.92
2022-11-28T22:23:57.892Z,-0.97
2022-11-28T22:26:24.578Z,-0.99
2022-11-28T22:28:53.736Z,-0.99
2022-11-28T22:31:22.440Z,-0.98
2022-11-28T22:33:50.045Z,-0.96
2022-11-28T22:36:19.003Z,-0.95
2022-11-28T22:38:47.475Z,-0.97
2022-11-28T22:41:26.416Z,-0.99
2022-11-28T22:43:58.740Z,-1.06
2022-11-28T22:46:25.439Z,-1.11
2022-11-28T22:48:52.251Z,-1.11
2022-11-28T22:51:21.646Z,-1.11
2022-11-28T22:53:55.743Z,-1.11
2022-11-28T22:56:25.081Z,-1.10
2022-11-28T22:58:52.244Z,-1.11
2022-11-28T23:01:25.972Z,-1.14
2022-11-28T23:03:53.989Z,-1.19
2022-11-28T23:06:24.344Z,-1.22
2022-11-28T23:08:55.490Z,-1.26
2022-11-28T23:11:25.922Z,-1.33
2022-11-28T23:13:57.019Z,-1.41
2022-11-28T23:16:30.818Z,-1.45
2022-11-28T23:19:01.299Z,-1.50
2022-11-28T23:21:31.999Z,-1.53
2022-11-28T23:23:59.459Z,-1.53
2022-11-28T23:26:29.076Z,-1.52
2022-11-28T23:28:58.752Z,-1.48
2022-11-28T23:31:30.965Z,-1.44
2022-11-28T23:33:59.441Z,-1.43
2022-11-28T23:36:41.446Z,-1.43
2022-11-28T23:39:15.590Z,-1.44
2022-11-28T23:41:43.659Z,-1.54
2022-11-28T23:44:12.348Z,-1.65
2022-11-28T23:46:39.467Z,-1.73
2022-11-28T23:49:07.125Z,-1.81
2022-11-28T23:51:34.333Z,-1.88
2022-11-28T23:54:01.124Z,-1.90
2022-11-28T23:56:30.329Z,-1.92
2022-11-28T23:58:59.421Z,-1.94
